sensor_id;sensor_type;location;lat;lon;timestamp;pressure;altitude;pressure_sealevel;temperature;humidity
16777;BME280;8505;49.456;8.164;2023-04-07T00:00:29;99741.63;;;7.47;89.40
16777;BME280;8505;49.456;8.164;2023-04-07T00:02:57;99739.19;;;7.53;89.61
16777;BME280;8505;49.456;8.164;2023-04-07T00:05:27;99738.50;;;7.69;89.73
16777;BME280;8505;49.456;8.164;2023-04-07T00:07:55;99735.94;;;8.03;88.69
16777;BME280;8505;49.456;8.164;2023-04-07T00:10:24;99733.38;;;8.37;85.76
16777;BME280;8505;49.456;8.164;2023-04-07T00:12:52;99731.63;;;8.28;84.53
16777;BME280;8505;49.456;8.164;2023-04-07T00:15:20;99718.78;;;8.25;83.96
16777;BME280;8505;49.456;8.164;2023-04-07T00:17:48;99731.19;;;8.06;85.71
16777;BME280;8505;49.456;8.164;2023-04-07T00:20:16;99717.81;;;8.00;85.99
16777;BME280;8505;49.456;8.164;2023-04-07T00:22:44;99715.47;;;7.97;86.57
16777;BME280;8505;49.456;8.164;2023-04-07T00:25:11;99713.31;;;8.18;85.91
16777;BME280;8505;49.456;8.164;2023-04-07T00:27:40;99713.19;;;8.28;84.98
16777;BME280;8505;49.456;8.164;2023-04-07T00:30:09;99718.50;;;8.02;85.24
16777;BME280;8505;49.456;8.164;2023-04-07T00:32:36;99713.31;;;7.92;86.70
16777;BME280;8505;49.456;8.164;2023-04-07T00:35:05;99710.66;;;7.92;86.16
16777;BME280;8505;49.456;8.164;2023-04-07T00:37:33;99701.44;;;7.88;85.78
16777;BME280;8505;49.456;8.164;2023-04-07T00:40:00;99703.31;;;7.78;86.87
16777;BME280;8505;49.456;8.164;2023-04-07T00:42:29;99694.41;;;7.71;86.54
16777;BME280;8505;49.456;8.164;2023-04-07T00:44:58;99684.63;;;7.89;86.61
16777;BME280;8505;49.456;8.164;2023-04-07T00:47:26;99684.00;;;7.95;86.15
16777;BME280;8505;49.456;8.164;2023-04-07T00:49:54;99688.28;;;7.96;85.68
16777;BME280;8505;49.456;8.164;2023-04-07T00:52:22;99683.44;;;7.84;86.71
16777;BME280;8505;49.456;8.164;2023-04-07T00:54:54;99674.84;;;7.82;87.01
16777;BME280;8505;49.456;8.164;2023-04-07T00:57:22;99670.66;;;7.97;87.46
16777;BME280;8505;49.456;8.164;2023-04-07T00:59:51;99670.22;;;7.76;88.68
16777;BME280;8505;49.456;8.164;2023-04-07T01:02:26;99668.31;;;8.20;85.96
16777;BME280;8505;49.456;8.164;2023-04-07T01:05:06;99666.50;;;8.20;85.39
16777;BME280;8505;49.456;8.164;2023-04-07T01:07:45;99660.69;;;8.17;84.17
16777;BME280;8505;49.456;8.164;2023-04-07T01:10:20;99660.34;;;7.78;85.79
16777;BME280;8505;49.456;8.164;2023-04-07T01:12:55;99659.13;;;7.72;87.08
16777;BME280;8505;49.456;8.164;2023-04-07T01:15:26;99653.56;;;7.75;87.08
16777;BME280;8505;49.456;8.164;2023-04-07T01:17:59;99653.84;;;7.72;86.91
16777;BME280;8505;49.456;8.164;2023-04-07T01:20:31;99650.94;;;7.75;87.13
16777;BME280;8505;49.456;8.164;2023-04-07T01:23:03;99658.13;;;7.65;87.46
16777;BME280;8505;49.456;8.164;2023-04-07T01:25:41;99646.63;;;7.74;87.77
16777;BME280;8505;49.456;8.164;2023-04-07T01:31:24;99646.78;;;7.72;87.49
16777;BME280;8505;49.456;8.164;2023-04-07T01:33:54;99643.91;;;7.58;88.28
16777;BME280;8505;49.456;8.164;2023-04-07T01:36:22;99637.28;;;7.54;88.49
16777;BME280;8505;49.456;8.164;2023-04-07T01:38:53;99642.38;;;7.55;88.78
16777;BME280;8505;49.456;8.164;2023-04-07T01:41:22;99639.25;;;7.52;88.76
16777;BME280;8505;49.456;8.164;2023-04-07T01:43:51;99637.88;;;7.48;89.78
16777;BME280;8505;49.456;8.164;2023-04-07T01:46:22;99633.38;;;7.58;88.75
16777;BME280;8505;49.456;8.164;2023-04-07T01:48:50;99632.06;;;7.62;87.82
16777;BME280;8505;49.456;8.164;2023-04-07T01:51:20;99631.63;;;7.49;88.48
16777;BME280;8505;49.456;8.164;2023-04-07T01:53:48;99631.44;;;7.42;88.52
16777;BME280;8505;49.456;8.164;2023-04-07T01:56:16;99628.94;;;7.41;88.38
16777;BME280;8505;49.456;8.164;2023-04-07T01:58:44;99622.34;;;7.37;89.18
16777;BME280;8505;49.456;8.164;2023-04-07T02:01:13;99620.47;;;7.29;88.98
16777;BME280;8505;49.456;8.164;2023-04-07T02:03:50;99627.03;;;7.07;90.13
16777;BME280;8505;49.456;8.164;2023-04-07T02:06:23;99615.69;;;6.89;90.79
16777;BME280;8505;49.456;8.164;2023-04-07T02:08:56;99623.13;;;6.76;91.31
16777;BME280;8505;49.456;8.164;2023-04-07T02:11:26;99615.38;;;6.74;91.50
16777;BME280;8505;49.456;8.164;2023-04-07T02:13:56;99616.59;;;6.80;91.61
16777;BME280;8505;49.456;8.164;2023-04-07T02:16:24;99619.81;;;6.56;92.08
16777;BME280;8505;49.456;8.164;2023-04-07T02:18:55;99617.53;;;6.43;92.55
16777;BME280;8505;49.456;8.164;2023-04-07T02:21:24;99613.06;;;6.54;92.59
16777;BME280;8505;49.456;8.164;2023-04-07T02:23:54;99618.91;;;6.47;92.88
16777;BME280;8505;49.456;8.164;2023-04-07T02:26:22;99612.47;;;6.60;93.12
16777;BME280;8505;49.456;8.164;2023-04-07T02:28:49;99613.81;;;6.64;92.05
16777;BME280;8505;49.456;8.164;2023-04-07T02:31:17;99604.13;;;6.64;91.57
16777;BME280;8505;49.456;8.164;2023-04-07T02:33:45;99608.56;;;6.64;91.50
16777;BME280;8505;49.456;8.164;2023-04-07T02:36:14;99616.13;;;6.49;90.71
16777;BME280;8505;49.456;8.164;2023-04-07T02:38:42;99610.84;;;6.49;91.22
16777;BME280;8505;49.456;8.164;2023-04-07T02:41:09;99605.06;;;6.45;91.14
16777;BME280;8505;49.456;8.164;2023-04-07T02:43:37;99601.53;;;6.55;90.40
16777;BME280;8505;49.456;8.164;2023-04-07T02:46:05;99597.91;;;6.38;90.04
16777;BME280;8505;49.456;8.164;2023-04-07T02:48:32;99599.44;;;6.40;90.17
16777;BME280;8505;49.456;8.164;2023-04-07T02:51:00;99598.06;;;6.36;90.71
16777;BME280;8505;49.456;8.164;2023-04-07T02:53:29;99598.22;;;6.35;90.38
16777;BME280;8505;49.456;8.164;2023-04-07T02:55:57;99596.03;;;6.30;89.46
16777;BME280;8505;49.456;8.164;2023-04-07T02:58:25;99595.31;;;6.11;90.26
16777;BME280;8505;49.456;8.164;2023-04-07T03:00:52;99592.78;;;6.19;90.55
16777;BME280;8505;49.456;8.164;2023-04-07T03:03:20;99592.41;;;6.14;90.36
16777;BME280;8505;49.456;8.164;2023-04-07T03:05:48;99592.72;;;6.01;91.49
16777;BME280;8505;49.456;8.164;2023-04-07T03:08:16;99592.41;;;5.77;92.70
16777;BME280;8505;49.456;8.164;2023-04-07T03:10:45;99590.03;;;5.83;92.79
16777;BME280;8505;49.456;8.164;2023-04-07T03:13:13;99588.91;;;5.86;92.32
16777;BME280;8505;49.456;8.164;2023-04-07T03:15:42;99581.44;;;5.81;92.17
16777;BME280;8505;49.456;8.164;2023-04-07T03:18:10;99574.13;;;5.85;92.46
16777;BME280;8505;49.456;8.164;2023-04-07T03:20:38;99581.88;;;5.86;91.56
16777;BME280;8505;49.456;8.164;2023-04-07T03:23:07;99582.28;;;5.91;91.50
16777;BME280;8505;49.456;8.164;2023-04-07T03:25:35;99586.69;;;5.91;91.75
16777;BME280;8505;49.456;8.164;2023-04-07T03:28:04;99580.47;;;5.92;91.16
16777;BME280;8505;49.456;8.164;2023-04-07T03:30:32;99579.84;;;5.70;90.90
16777;BME280;8505;49.456;8.164;2023-04-07T03:32:59;99584.66;;;5.75;92.00
16777;BME280;8505;49.456;8.164;2023-04-07T03:35:27;99588.28;;;5.64;92.37
16777;BME280;8505;49.456;8.164;2023-04-07T03:37:55;99585.78;;;5.73;92.35
16777;BME280;8505;49.456;8.164;2023-04-07T03:40:22;99590.28;;;5.80;92.24
16777;BME280;8505;49.456;8.164;2023-04-07T03:42:50;99592.66;;;5.83;91.68
16777;BME280;8505;49.456;8.164;2023-04-07T03:45:19;99586.28;;;5.86;90.77
16777;BME280;8505;49.456;8.164;2023-04-07T03:47:47;99586.94;;;5.60;91.40
16777;BME280;8505;49.456;8.164;2023-04-07T03:50:15;99581.25;;;5.65;92.01
16777;BME280;8505;49.456;8.164;2023-04-07T03:52:43;99586.44;;;5.75;91.00
16777;BME280;8505;49.456;8.164;2023-04-07T03:55:10;99584.06;;;5.91;90.75
16777;BME280;8505;49.456;8.164;2023-04-07T03:57:38;99586.84;;;5.89;90.36
16777;BME280;8505;49.456;8.164;2023-04-07T04:00:07;99591.69;;;5.75;90.89
16777;BME280;8505;49.456;8.164;2023-04-07T04:02:38;99588.81;;;5.68;90.55
16777;BME280;8505;49.456;8.164;2023-04-07T04:05:06;99583.34;;;5.61;91.52
16777;BME280;8505;49.456;8.164;2023-04-07T04:07:33;99589.97;;;5.56;91.72
16777;BME280;8505;49.456;8.164;2023-04-07T04:10:01;99582.78;;;5.58;91.96
16777;BME280;8505;49.456;8.164;2023-04-07T04:12:29;99588.44;;;5.63;91.43
16777;BME280;8505;49.456;8.164;2023-04-07T04:14:57;99590.28;;;5.53;91.72
16777;BME280;8505;49.456;8.164;2023-04-07T04:17:24;99588.78;;;5.41;92.10
16777;BME280;8505;49.456;8.164;2023-04-07T04:19:53;99591.19;;;5.24;92.40
16777;BME280;8505;49.456;8.164;2023-04-07T04:22:21;99590.97;;;5.55;92.65
16777;BME280;8505;49.456;8.164;2023-04-07T04:24:49;99593.63;;;5.82;89.79
16777;BME280;8505;49.456;8.164;2023-04-07T04:27:17;99604.78;;;5.94;90.03
16777;BME280;8505;49.456;8.164;2023-04-07T04:29:45;99593.75;;;5.81;89.87
16777;BME280;8505;49.456;8.164;2023-04-07T04:32:13;99598.81;;;5.64;89.53
16777;BME280;8505;49.456;8.164;2023-04-07T04:34:40;99599.31;;;5.78;90.40
16777;BME280;8505;49.456;8.164;2023-04-07T04:37:10;99598.53;;;5.67;90.02
16777;BME280;8505;49.456;8.164;2023-04-07T04:39:37;99601.72;;;5.61;90.73
16777;BME280;8505;49.456;8.164;2023-04-07T04:42:05;99601.31;;;5.56;90.71
16777;BME280;8505;49.456;8.164;2023-04-07T04:44:33;99605.19;;;5.52;91.03
16777;BME280;8505;49.456;8.164;2023-04-07T04:47:02;99596.09;;;5.47;91.74
16777;BME280;8505;49.456;8.164;2023-04-07T04:49:29;99607.44;;;5.47;92.13
16777;BME280;8505;49.456;8.164;2023-04-07T04:51:57;99595.53;;;5.53;91.96
16777;BME280;8505;49.456;8.164;2023-04-07T04:54:26;99598.28;;;5.61;92.39
16777;BME280;8505;49.456;8.164;2023-04-07T04:56:54;99602.50;;;5.72;91.74
16777;BME280;8505;49.456;8.164;2023-04-07T04:59:22;99600.03;;;5.70;91.99
16777;BME280;8505;49.456;8.164;2023-04-07T05:01:52;99598.41;;;5.59;92.27
16777;BME280;8505;49.456;8.164;2023-04-07T05:04:20;99590.09;;;6.01;91.93
16777;BME280;8505;49.456;8.164;2023-04-07T05:06:48;99590.25;;;5.99;90.33
16777;BME280;8505;49.456;8.164;2023-04-07T05:09:16;99586.44;;;6.12;90.54
16777;BME280;8505;49.456;8.164;2023-04-07T05:11:45;99586.69;;;5.91;90.12
16777;BME280;8505;49.456;8.164;2023-04-07T05:14:12;99582.81;;;5.95;90.83
16777;BME280;8505;49.456;8.164;2023-04-07T05:16:40;99585.91;;;6.08;89.84
16777;BME280;8505;49.456;8.164;2023-04-07T05:19:08;99581.94;;;6.04;89.99
16777;BME280;8505;49.456;8.164;2023-04-07T05:21:36;99579.59;;;6.01;89.87
16777;BME280;8505;49.456;8.164;2023-04-07T05:24:04;99577.53;;;5.95;91.00
16777;BME280;8505;49.456;8.164;2023-04-07T05:26:34;99576.72;;;5.94;91.16
16777;BME280;8505;49.456;8.164;2023-04-07T05:29:03;99580.88;;;5.97;90.83
16777;BME280;8505;49.456;8.164;2023-04-07T05:31:31;99575.16;;;6.01;90.57
16777;BME280;8505;49.456;8.164;2023-04-07T05:34:01;99573.38;;;6.02;90.83
16777;BME280;8505;49.456;8.164;2023-04-07T05:36:29;99574.56;;;6.07;90.25
16777;BME280;8505;49.456;8.164;2023-04-07T05:38:56;99578.47;;;6.03;90.94
16777;BME280;8505;49.456;8.164;2023-04-07T05:41:24;99578.41;;;6.13;90.06
16777;BME280;8505;49.456;8.164;2023-04-07T05:43:52;99583.56;;;6.05;90.36
16777;BME280;8505;49.456;8.164;2023-04-07T05:46:21;99592.84;;;6.09;90.16
16777;BME280;8505;49.456;8.164;2023-04-07T05:48:49;99592.00;;;6.08;89.98
16777;BME280;8505;49.456;8.164;2023-04-07T05:51:16;99596.53;;;6.16;89.95
16777;BME280;8505;49.456;8.164;2023-04-07T05:53:44;99593.47;;;6.21;89.71
16777;BME280;8505;49.456;8.164;2023-04-07T05:56:12;99599.66;;;6.29;89.32
16777;BME280;8505;49.456;8.164;2023-04-07T05:58:40;99596.19;;;6.29;89.07
16777;BME280;8505;49.456;8.164;2023-04-07T06:01:07;99606.13;;;6.35;88.64
16777;BME280;8505;49.456;8.164;2023-04-07T06:03:36;99609.84;;;6.60;88.28
16777;BME280;8505;49.456;8.164;2023-04-07T06:06:06;99604.94;;;6.65;87.71
16777;BME280;8505;49.456;8.164;2023-04-07T06:08:34;99606.88;;;6.63;87.53
16777;BME280;8505;49.456;8.164;2023-04-07T06:11:01;99608.03;;;6.96;87.30
16777;BME280;8505;49.456;8.164;2023-04-07T06:13:29;99607.50;;;7.36;85.45
16777;BME280;8505;49.456;8.164;2023-04-07T06:15:57;99606.53;;;7.37;83.82
16777;BME280;8505;49.456;8.164;2023-04-07T06:18:25;99606.47;;;7.80;83.90
16777;BME280;8505;49.456;8.164;2023-04-07T06:20:54;99601.88;;;8.24;81.17
16777;BME280;8505;49.456;8.164;2023-04-07T06:23:22;99605.19;;;8.84;78.93
16777;BME280;8505;49.456;8.164;2023-04-07T06:25:51;99602.38;;;8.78;78.81
16777;BME280;8505;49.456;8.164;2023-04-07T06:28:19;99603.06;;;9.12;78.10
16777;BME280;8505;49.456;8.164;2023-04-07T06:30:47;99594.75;;;9.40;78.09
16777;BME280;8505;49.456;8.164;2023-04-07T06:33:15;99603.63;;;9.79;75.10
16777;BME280;8505;49.456;8.164;2023-04-07T06:35:43;99585.88;;;9.96;75.16
16777;BME280;8505;49.456;8.164;2023-04-07T06:38:12;99600.13;;;10.34;74.36
16777;BME280;8505;49.456;8.164;2023-04-07T06:40:39;99603.69;;;10.49;73.54
16777;BME280;8505;49.456;8.164;2023-04-07T06:43:07;99596.16;;;11.06;72.06
16777;BME280;8505;49.456;8.164;2023-04-07T06:45:35;99591.31;;;12.14;72.04
16777;BME280;8505;49.456;8.164;2023-04-07T06:48:04;99589.19;;;11.80;68.82
16777;BME280;8505;49.456;8.164;2023-04-07T06:50:32;99589.91;;;12.54;65.13
16777;BME280;8505;49.456;8.164;2023-04-07T06:52:59;99588.38;;;12.81;64.11
16777;BME280;8505;49.456;8.164;2023-04-07T06:55:28;99585.63;;;13.66;61.91
16777;BME280;8505;49.456;8.164;2023-04-07T06:57:57;99579.28;;;14.01;60.19
16777;BME280;8505;49.456;8.164;2023-04-07T07:00:24;99579.16;;;14.16;64.27
16777;BME280;8505;49.456;8.164;2023-04-07T07:02:55;99574.72;;;14.36;60.46
16777;BME280;8505;49.456;8.164;2023-04-07T07:05:26;99580.25;;;13.87;59.74
16777;BME280;8505;49.456;8.164;2023-04-07T07:07:54;99581.59;;;13.00;61.81
16777;BME280;8505;49.456;8.164;2023-04-07T07:10:21;99590.22;;;13.23;61.69
16777;BME280;8505;49.456;8.164;2023-04-07T07:12:51;99589.84;;;12.47;63.83
16777;BME280;8505;49.456;8.164;2023-04-07T07:15:18;99586.38;;;13.25;63.84
16777;BME280;8505;49.456;8.164;2023-04-07T07:17:46;99588.78;;;13.48;62.39
16777;BME280;8505;49.456;8.164;2023-04-07T07:20:14;99604.84;;;12.55;64.53
16777;BME280;8505;49.456;8.164;2023-04-07T07:22:42;99597.00;;;12.47;64.57
16777;BME280;8505;49.456;8.164;2023-04-07T07:25:10;99594.28;;;12.40;64.96
16777;BME280;8505;49.456;8.164;2023-04-07T07:27:37;99589.56;;;12.57;64.47
16777;BME280;8505;49.456;8.164;2023-04-07T07:30:07;99597.44;;;12.14;65.41
16777;BME280;8505;49.456;8.164;2023-04-07T07:32:35;99594.69;;;11.93;66.38
16777;BME280;8505;49.456;8.164;2023-04-07T07:35:04;99592.06;;;11.56;67.76
16777;BME280;8505;49.456;8.164;2023-04-07T07:37:32;99596.84;;;11.60;68.37
16777;BME280;8505;49.456;8.164;2023-04-07T07:39:59;99597.81;;;11.82;67.29
16777;BME280;8505;49.456;8.164;2023-04-07T07:42:28;99603.47;;;11.79;67.64
16777;BME280;8505;49.456;8.164;2023-04-07T07:44:56;99604.66;;;11.77;67.19
16777;BME280;8505;49.456;8.164;2023-04-07T07:47:25;99605.72;;;11.67;68.05
16777;BME280;8505;49.456;8.164;2023-04-07T07:49:53;99616.31;;;10.92;68.93
16777;BME280;8505;49.456;8.164;2023-04-07T07:52:21;99619.53;;;11.25;69.12
16777;BME280;8505;49.456;8.164;2023-04-07T07:54:50;99616.72;;;11.27;69.09
16777;BME280;8505;49.456;8.164;2023-04-07T07:57:18;99612.66;;;11.16;68.75
16777;BME280;8505;49.456;8.164;2023-04-07T07:59:46;99616.44;;;11.22;68.86
16777;BME280;8505;49.456;8.164;2023-04-07T08:02:14;99620.75;;;11.38;67.97
16777;BME280;8505;49.456;8.164;2023-04-07T08:04:43;99625.72;;;11.55;67.48
16777;BME280;8505;49.456;8.164;2023-04-07T08:07:11;99615.63;;;11.73;66.58
16777;BME280;8505;49.456;8.164;2023-04-07T08:09:39;99615.81;;;12.31;64.34
16777;BME280;8505;49.456;8.164;2023-04-07T08:12:07;99620.19;;;12.74;62.95
16777;BME280;8505;49.456;8.164;2023-04-07T08:14:34;99620.63;;;12.78;62.48
16777;BME280;8505;49.456;8.164;2023-04-07T08:17:02;99619.63;;;12.43;63.17
16777;BME280;8505;49.456;8.164;2023-04-07T08:19:29;99618.47;;;12.31;64.91
16777;BME280;8505;49.456;8.164;2023-04-07T08:21:59;99620.31;;;12.66;64.30
16777;BME280;8505;49.456;8.164;2023-04-07T08:24:27;99623.78;;;13.24;63.22
16777;BME280;8505;49.456;8.164;2023-04-07T08:26:54;99613.34;;;14.53;57.92
16777;BME280;8505;49.456;8.164;2023-04-07T08:29:22;99612.03;;;15.43;55.32
16777;BME280;8505;49.456;8.164;2023-04-07T08:31:50;99616.38;;;15.84;53.32
16777;BME280;8505;49.456;8.164;2023-04-07T08:34:18;99614.78;;;14.49;55.62
16777;BME280;8505;49.456;8.164;2023-04-07T08:36:46;99618.38;;;14.35;56.33
16777;BME280;8505;49.456;8.164;2023-04-07T08:39:15;99626.94;;;13.90;57.32
16777;BME280;8505;49.456;8.164;2023-04-07T08:41:43;99625.63;;;13.23;59.25
16777;BME280;8505;49.456;8.164;2023-04-07T08:44:12;99625.53;;;13.94;57.88
16777;BME280;8505;49.456;8.164;2023-04-07T08:46:42;99627.38;;;13.38;58.71
16777;BME280;8505;49.456;8.164;2023-04-07T08:49:11;99628.25;;;13.45;59.41
16777;BME280;8505;49.456;8.164;2023-04-07T08:51:44;99637.97;;;13.31;59.54
16777;BME280;8505;49.456;8.164;2023-04-07T08:54:15;99641.91;;;13.14;60.79
16777;BME280;8505;49.456;8.164;2023-04-07T08:56:44;99635.66;;;13.28;60.64
16777;BME280;8505;49.456;8.164;2023-04-07T08:59:13;99637.72;;;13.26;60.39
16777;BME280;8505;49.456;8.164;2023-04-07T09:01:44;99642.56;;;13.01;60.87
16777;BME280;8505;49.456;8.164;2023-04-07T09:04:13;99636.13;;;12.74;62.52
16777;BME280;8505;49.456;8.164;2023-04-07T09:06:41;99646.91;;;12.87;62.56
16777;BME280;8505;49.456;8.164;2023-04-07T09:09:10;99645.75;;;12.96;61.95
16777;BME280;8505;49.456;8.164;2023-04-07T09:11:42;99649.06;;;12.98;61.29
16777;BME280;8505;49.456;8.164;2023-04-07T09:14:09;99650.72;;;13.00;61.61
16777;BME280;8505;49.456;8.164;2023-04-07T09:16:37;99652.59;;;12.48;62.69
16777;BME280;8505;49.456;8.164;2023-04-07T09:19:05;99655.50;;;12.53;62.87
16777;BME280;8505;49.456;8.164;2023-04-07T09:21:47;99659.03;;;12.25;62.62
16777;BME280;8505;49.456;8.164;2023-04-07T09:24:22;99658.59;;;12.21;62.54
16777;BME280;8505;49.456;8.164;2023-04-07T09:27:07;99657.72;;;12.35;62.36
16777;BME280;8505;49.456;8.164;2023-04-07T09:29:36;99662.28;;;12.71;61.59
16777;BME280;8505;49.456;8.164;2023-04-07T09:32:04;99667.44;;;12.93;60.73
16777;BME280;8505;49.456;8.164;2023-04-07T09:34:33;99661.09;;;12.94;60.17
16777;BME280;8505;49.456;8.164;2023-04-07T09:37:04;99655.88;;;13.22;60.27
16777;BME280;8505;49.456;8.164;2023-04-07T09:39:32;99660.81;;;13.25;60.81
16777;BME280;8505;49.456;8.164;2023-04-07T09:42:05;99659.13;;;13.18;61.05
16777;BME280;8505;49.456;8.164;2023-04-07T09:44:38;99666.28;;;13.03;61.41
16777;BME280;8505;49.456;8.164;2023-04-07T09:47:07;99664.59;;;12.95;60.65
16777;BME280;8505;49.456;8.164;2023-04-07T09:49:47;99657.97;;;13.27;61.33
16777;BME280;8505;49.456;8.164;2023-04-07T09:52:16;99656.28;;;13.05;61.12
16777;BME280;8505;49.456;8.164;2023-04-07T09:54:46;99660.22;;;12.37;64.91
16777;BME280;8505;49.456;8.164;2023-04-07T09:57:17;99667.09;;;12.31;65.68
16777;BME280;8505;49.456;8.164;2023-04-07T09:59:45;99666.56;;;12.21;66.08
16777;BME280;8505;49.456;8.164;2023-04-07T10:02:15;99662.44;;;12.69;64.83
16777;BME280;8505;49.456;8.164;2023-04-07T10:04:43;99661.31;;;12.13;66.39
16777;BME280;8505;49.456;8.164;2023-04-07T10:07:11;99665.50;;;12.37;65.49
16777;BME280;8505;49.456;8.164;2023-04-07T10:09:39;99665.69;;;11.91;66.92
16777;BME280;8505;49.456;8.164;2023-04-07T10:12:07;99678.25;;;11.60;66.90
16777;BME280;8505;49.456;8.164;2023-04-07T10:14:36;99670.47;;;11.73;67.35
16777;BME280;8505;49.456;8.164;2023-04-07T10:17:06;99683.91;;;11.57;67.89
16777;BME280;8505;49.456;8.164;2023-04-07T10:19:35;99684.28;;;11.31;68.53
16777;BME280;8505;49.456;8.164;2023-04-07T10:22:04;99685.94;;;11.09;68.81
16777;BME280;8505;49.456;8.164;2023-04-07T10:24:43;99691.84;;;11.57;67.99
16777;BME280;8505;49.456;8.164;2023-04-07T10:27:16;99698.28;;;11.62;68.90
16777;BME280;8505;49.456;8.164;2023-04-07T10:29:48;99701.03;;;11.69;69.13
16777;BME280;8505;49.456;8.164;2023-04-07T10:32:16;99701.56;;;11.64;71.50
16777;BME280;8505;49.456;8.164;2023-04-07T10:34:58;99710.53;;;11.63;71.32
16777;BME280;8505;49.456;8.164;2023-04-07T10:37:26;99702.25;;;11.44;72.78
16777;BME280;8505;49.456;8.164;2023-04-07T10:40:28;99713.38;;;11.99;70.83
16777;BME280;8505;49.456;8.164;2023-04-07T10:42:56;99712.44;;;11.92;70.75
16777;BME280;8505;49.456;8.164;2023-04-07T10:45:56;99703.13;;;12.11;71.97
16777;BME280;8505;49.456;8.164;2023-04-07T10:48:27;99708.28;;;12.42;70.08
16777;BME280;8505;49.456;8.164;2023-04-07T10:51:14;99709.34;;;11.89;71.96
16777;BME280;8505;49.456;8.164;2023-04-07T10:54:17;99706.00;;;12.39;70.71
16777;BME280;8505;49.456;8.164;2023-04-07T10:57:12;99709.81;;;12.66;71.79
16777;BME280;8505;49.456;8.164;2023-04-07T11:00:14;99701.66;;;12.82;71.45
16777;BME280;8505;49.456;8.164;2023-04-07T11:02:44;99705.31;;;13.59;68.95
16777;BME280;8505;49.456;8.164;2023-04-07T11:05:19;99699.69;;;13.48;68.58
16777;BME280;8505;49.456;8.164;2023-04-07T11:07:51;99709.31;;;13.70;66.95
16777;BME280;8505;49.456;8.164;2023-04-07T11:10:23;99704.56;;;13.23;67.50
16777;BME280;8505;49.456;8.164;2023-04-07T11:13:02;99698.44;;;13.44;66.37
16777;BME280;8505;49.456;8.164;2023-04-07T11:15:30;99698.50;;;13.29;64.75
16777;BME280;8505;49.456;8.164;2023-04-07T11:18:12;99699.66;;;13.20;67.67
16777;BME280;8505;49.456;8.164;2023-04-07T11:20:45;99695.06;;;13.35;67.51
16777;BME280;8505;49.456;8.164;2023-04-07T11:23:15;99697.69;;;13.50;65.05
16777;BME280;8505;49.456;8.164;2023-04-07T11:25:44;99698.88;;;13.26;64.17
16777;BME280;8505;49.456;8.164;2023-04-07T11:28:13;99700.84;;;13.03;64.94
16777;BME280;8505;49.456;8.164;2023-04-07T11:30:46;99707.28;;;12.43;65.29
16777;BME280;8505;49.456;8.164;2023-04-07T11:33:17;99701.50;;;12.90;64.10
16777;BME280;8505;49.456;8.164;2023-04-07T11:35:50;99709.28;;;12.41;62.44
16777;BME280;8505;49.456;8.164;2023-04-07T11:38:18;99701.34;;;12.91;63.39
16777;BME280;8505;49.456;8.164;2023-04-07T11:40:47;99702.38;;;13.12;62.92
16777;BME280;8505;49.456;8.164;2023-04-07T11:43:17;99706.91;;;13.75;60.70
16777;BME280;8505;49.456;8.164;2023-04-07T11:45:45;99703.25;;;14.10;60.14
16777;BME280;8505;49.456;8.164;2023-04-07T11:48:28;99704.41;;;14.01;59.00
16777;BME280;8505;49.456;8.164;2023-04-07T11:50:56;99715.31;;;13.78;59.43
16777;BME280;8505;49.456;8.164;2023-04-07T11:53:25;99711.44;;;14.09;59.45
16777;BME280;8505;49.456;8.164;2023-04-07T11:56:04;99712.66;;;13.78;59.02
16777;BME280;8505;49.456;8.164;2023-04-07T11:58:35;99719.59;;;14.01;58.68
16777;BME280;8505;49.456;8.164;2023-04-07T12:01:05;99715.19;;;13.65;60.03
16777;BME280;8505;49.456;8.164;2023-04-07T12:03:36;99713.06;;;13.54;60.90
16777;BME280;8505;49.456;8.164;2023-04-07T12:06:04;99718.25;;;13.20;60.68
16777;BME280;8505;49.456;8.164;2023-04-07T12:08:36;99715.63;;;12.90;61.99
16777;BME280;8505;49.456;8.164;2023-04-07T12:11:05;99711.03;;;12.34;64.94
16777;BME280;8505;49.456;8.164;2023-04-07T12:13:33;99717.88;;;12.28;65.64
16777;BME280;8505;49.456;8.164;2023-04-07T12:16:01;99721.16;;;11.63;66.64
16777;BME280;8505;49.456;8.164;2023-04-07T12:18:29;99724.34;;;11.59;67.56
16777;BME280;8505;49.456;8.164;2023-04-07T12:20:59;99728.59;;;12.20;65.47
16777;BME280;8505;49.456;8.164;2023-04-07T12:23:27;99725.69;;;12.30;64.87
16777;BME280;8505;49.456;8.164;2023-04-07T12:25:55;99729.53;;;12.56;65.49
16777;BME280;8505;49.456;8.164;2023-04-07T12:28:22;99734.47;;;12.15;65.66
16777;BME280;8505;49.456;8.164;2023-04-07T12:30:50;99739.13;;;12.13;63.83
16777;BME280;8505;49.456;8.164;2023-04-07T12:33:18;99741.59;;;12.30;63.89
16777;BME280;8505;49.456;8.164;2023-04-07T12:35:46;99747.91;;;12.29;65.42
16777;BME280;8505;49.456;8.164;2023-04-07T12:38:15;99741.13;;;11.97;66.20
16777;BME280;8505;49.456;8.164;2023-04-07T12:40:42;99743.72;;;12.64;65.32
16777;BME280;8505;49.456;8.164;2023-04-07T12:43:10;99747.66;;;12.82;64.54
16777;BME280;8505;49.456;8.164;2023-04-07T12:45:38;99749.75;;;12.43;63.69
16777;BME280;8505;49.456;8.164;2023-04-07T12:48:06;99748.69;;;12.52;62.97
16777;BME280;8505;49.456;8.164;2023-04-07T12:50:34;99745.34;;;12.79;62.28
16777;BME280;8505;49.456;8.164;2023-04-07T12:53:02;99742.63;;;13.09;60.72
16777;BME280;8505;49.456;8.164;2023-04-07T12:55:32;99745.03;;;13.04;62.60
16777;BME280;8505;49.456;8.164;2023-04-07T12:58:01;99749.69;;;12.51;61.21
16777;BME280;8505;49.456;8.164;2023-04-07T13:00:28;99751.25;;;12.45;61.77
16777;BME280;8505;49.456;8.164;2023-04-07T13:02:56;99756.63;;;12.37;62.86
16777;BME280;8505;49.456;8.164;2023-04-07T13:05:24;99753.06;;;12.45;63.25
16777;BME280;8505;49.456;8.164;2023-04-07T13:07:52;99766.81;;;12.63;61.89
16777;BME280;8505;49.456;8.164;2023-04-07T13:10:20;99760.13;;;12.52;61.43
16777;BME280;8505;49.456;8.164;2023-04-07T13:12:49;99760.59;;;12.71;62.26
16777;BME280;8505;49.456;8.164;2023-04-07T13:15:16;99762.03;;;12.73;64.13
16777;BME280;8505;49.456;8.164;2023-04-07T13:17:45;99769.66;;;12.76;66.20
16777;BME280;8505;49.456;8.164;2023-04-07T13:20:13;99764.81;;;12.65;67.09
16777;BME280;8505;49.456;8.164;2023-04-07T13:22:46;99771.84;;;12.58;69.86
16777;BME280;8505;49.456;8.164;2023-04-07T13:25:29;99775.03;;;12.24;69.65
16777;BME280;8505;49.456;8.164;2023-04-07T13:27:58;99767.97;;;12.16;71.31
16777;BME280;8505;49.456;8.164;2023-04-07T13:30:25;99766.34;;;12.30;69.68
16777;BME280;8505;49.456;8.164;2023-04-07T13:32:53;99766.16;;;12.32;70.47